createdAt,value
2022-12-09T00:02:30.386Z,76.31
2022-12-09T00:07:36.541Z,76.36
2022-12-09T00:12:39.907Z,76.33
2022-12-09T00:17:43.369Z,76.40
2022-12-09T00:22:46.919Z,76.41
2022-12-09T00:27:50.512Z,76.39
2022-12-09T00:32:53.977Z,76.37
2022-12-09T00:37:57.205Z,76.45
2022-12-09T00:43:00.651Z,76.31
2022-12-09T00:48:05.855Z,76.32
2022-12-09T00:53:10.789Z,76.26
2022-12-09T00:58:14.080Z,76.37
2022-12-09T01:03:18.559Z,76.44
2022-12-09T01:08:22.748Z,76.60
2022-12-09T01:13:26.195Z,76.49
2022-12-09T01:18:31.600Z,76.75
2022-12-09T01:23:38.303Z,76.62
2022-12-09T01:28:44.392Z,76.88
2022-12-09T01:33:49.225Z,77.13
2022-12-09T01:38:53.190Z,77.22
2022-12-09T01:44:09.308Z,77.09
2022-12-09T01:49:17.816Z,77.23
2022-12-09T01:54:22.077Z,77.41
2022-12-09T01:59:26.628Z,77.58
2022-12-09T02:04:41.234Z,77.74
2022-12-09T02:09:53.677Z,77.84
2022-12-09T02:15:19.693Z,78.03
2022-12-09T02:20:27.581Z,78.07
2022-12-09T02:25:43.268Z,78.15
2022-12-09T02:30:56.023Z,78.28
2022-12-09T02:36:10.428Z,78.41
2022-12-09T02:41:21.892Z,78.51
2022-12-09T02:46:28.524Z,78.66
2022-12-09T02:51:36.053Z,78.79
2022-12-09T02:56:42.314Z,78.90
2022-12-09T03:02:15.887Z,78.84
2022-12-09T03:07:31.601Z,78.60
2022-12-09T03:12:35.652Z,78.53
2022-12-09T03:17:41.671Z,78.56
2022-12-09T03:22:48.256Z,78.81
2022-12-09T03:27:57.770Z,79.04
2022-12-09T03:33:03.012Z,79.21
2022-12-09T03:38:10.897Z,79.47
2022-12-09T03:43:23.672Z,79.67
2022-12-09T03:48:27.344Z,79.74
2022-12-09T03:53:40.247Z,79.74
2022-12-09T03:58:45.388Z,79.77
2022-12-09T04:03:50.822Z,79.87
2022-12-09T04:08:59.352Z,79.93
2022-12-09T04:14:09.150Z,80.00
2022-12-09T04:19:16.207Z,80.12
2022-12-09T04:24:20.180Z,80.30
2022-12-09T04:29:23.839Z,80.48
2022-12-09T04:34:27.333Z,80.65
2022-12-09T04:39:31.373Z,80.72
2022-12-09T04:44:35.829Z,80.72
2022-12-09T04:49:39.626Z,80.92
2022-12-09T04:54:43.265Z,81.14
2022-12-09T04:59:46.533Z,81.17
2022-12-09T05:04:50.238Z,81.18
2022-12-09T05:09:54.706Z,81.23
2022-12-09T05:14:59.572Z,81.25
2022-12-09T05:20:07.188Z,81.38
2022-12-09T05:25:13.434Z,81.64
2022-12-09T05:30:17.967Z,81.96
2022-12-09T05:35:22.002Z,82.16
2022-12-09T05:40:26.410Z,82.43
2022-12-09T05:45:42.078Z,82.67
2022-12-09T05:50:46.122Z,82.81
2022-12-09T05:55:49.781Z,82.88
2022-12-09T06:00:58.097Z,82.91
2022-12-09T06:06:22.353Z,82.96
2022-12-09T06:11:27.685Z,83.00
2022-12-09T06:16:34.888Z,83.07
2022-12-09T06:21:43.074Z,83.13
2022-12-09T06:26:47.100Z,83.21
2022-12-09T06:31:50.815Z,83.15
2022-12-09T06:36:54.962Z,83.16
2022-12-09T06:42:00.003Z,83.16
2022-12-09T06:47:06.914Z,83.20
2022-12-09T06:52:11.855Z,83.22
2022-12-09T06:57:15.550Z,83.17
2022-12-09T07:02:21.722Z,83.13
2022-12-09T07:07:27.029Z,83.05
2022-12-09T07:12:30.922Z,82.96
2022-12-09T07:17:34.838Z,82.70
2022-12-09T07:22:39.056Z,82.60
2022-12-09T07:27:48.520Z,82.38
2022-12-09T07:32:55.266Z,82.26
2022-12-09T07:37:58.747Z,82.23
2022-12-09T07:43:02.503Z,81.69
2022-12-09T07:48:09.421Z,81.29
2022-12-09T07:53:12.974Z,81.23
2022-12-09T07:58:17.026Z,81.11
2022-12-09T08:03:24.673Z,80.86
2022-12-09T08:08:28.468Z,80.73
2022-12-09T08:13:32.897Z,80.73
2022-12-09T08:18:37.494Z,80.69
2022-12-09T08:23:41.465Z,80.18
2022-12-09T08:28:46.109Z,80.23
2022-12-09T08:33:50.665Z,79.85
2022-12-09T08:38:55.586Z,79.75
2022-12-09T08:43:59.255Z,79.78
2022-12-09T08:49:04.445Z,79.71
2022-12-09T08:54:12.225Z,79.52
2022-12-09T08:59:17.107Z,78.62
2022-12-09T09:04:23.235Z,77.85
2022-12-09T09:09:29.864Z,77.04
2022-12-09T09:14:37.057Z,76.65
2022-12-09T09:19:40.991Z,76.55
2022-12-09T09:24:50.500Z,76.08
2022-12-09T09:29:55.612Z,74.68
2022-12-09T09:35:01.505Z,74.25
2022-12-09T09:45:38.587Z,74.35
2022-12-09T09:51:07.889Z,74.87
2022-12-09T09:56:34.593Z,73.26
2022-12-09T10:01:39.551Z,73.55
2022-12-09T10:06:50.817Z,73.29
2022-12-09T10:12:20.313Z,73.13
2022-12-09T10:17:41.122Z,72.90
2022-12-09T10:22:56.626Z,72.51
2022-12-09T10:28:23.892Z,72.57
2022-12-09T10:33:33.404Z,73.28
2022-12-09T10:38:39.709Z,73.44
2022-12-09T10:43:44.549Z,72.46
2022-12-09T10:48:59.239Z,72.39
2022-12-09T10:54:27.028Z,72.08
2022-12-09T10:59:38.246Z,72.85
2022-12-09T11:04:51.134Z,73.05
2022-12-09T11:09:58.114Z,71.86
2022-12-09T11:15:05.930Z,71.46
2022-12-09T11:26:06.285Z,71.13
2022-12-09T11:31:38.964Z,71.51
2022-12-09T11:37:01.592Z,70.63
2022-12-09T11:42:22.870Z,70.70
2022-12-09T11:48:24.113Z,70.99
2022-12-09T11:53:24.773Z,71.16
2022-12-09T11:59:02.284Z,71.76
2022-12-09T12:04:11.389Z,72.03
2022-12-09T12:09:27.099Z,70.66
2022-12-09T12:14:37.395Z,70.38
2022-12-09T12:19:45.962Z,71.32
2022-12-09T12:25:20.567Z,70.55
2022-12-09T12:30:36.165Z,70.25
2022-12-09T12:36:20.737Z,70.41
2022-12-09T12:42:01.987Z,70.60
2022-12-09T12:48:32.711Z,69.90
2022-12-09T12:54:29.431Z,70.36
2022-12-09T13:00:16.191Z,70.14
2022-12-09T13:05:25.536Z,70.19
2022-12-09T13:10:38.010Z,70.20
2022-12-09T13:16:49.016Z,70.17
2022-12-09T13:22:05.964Z,70.15
2022-12-09T13:27:24.757Z,70.68
2022-12-09T13:32:37.058Z,70.18
2022-12-09T13:37:43.490Z,70.65
2022-12-09T13:43:04.488Z,71.10
2022-12-09T13:48:16.535Z,71.19
2022-12-09T13:53:23.544Z,70.91
2022-12-09T13:58:47.844Z,71.18
2022-12-09T14:04:16.481Z,71.42
2022-12-09T14:09:49.640Z,71.69
2022-12-09T14:15:06.049Z,71.95
2022-12-09T14:20:17.897Z,72.23
2022-12-09T14:25:28.750Z,72.63
2022-12-09T14:30:35.212Z,72.73
2022-12-09T14:36:07.580Z,73.04
2022-12-09T14:41:36.527Z,73.35
2022-12-09T14:46:48.367Z,73.89
2022-12-09T14:52:05.877Z,74.31
2022-12-09T14:57:46.778Z,74.48
2022-12-09T15:03:23.077Z,74.69
2022-12-09T15:08:40.686Z,74.74
2022-12-09T15:13:47.197Z,74.94
2022-12-09T15:18:53.419Z,75.22
2022-12-09T15:23:59.974Z,75.56
2022-12-09T15:29:05.874Z,75.67
2022-12-09T15:34:20.468Z,75.88
2022-12-09T15:39:34.680Z,76.20
2022-12-09T15:44:57.058Z,76.67
2022-12-09T15:50:10.935Z,77.31
2022-12-09T15:55:16.955Z,77.69
2022-12-09T16:00:25.684Z,77.85
2022-12-09T16:05:37.182Z,77.79
2022-12-09T16:17:28.827Z,77.27
2022-12-09T16:22:54.952Z,77.68
2022-12-09T16:28:02.585Z,77.72
2022-12-09T16:33:18.827Z,77.91
2022-12-09T16:38:30.519Z,77.96
2022-12-09T16:43:41.655Z,78.15
2022-12-09T16:48:51.032Z,78.23
2022-12-09T16:53:59.149Z,78.29
2022-12-09T16:59:02.842Z,78.42
2022-12-09T17:04:21.760Z,78.34
2022-12-09T17:09:30.632Z,78.20
2022-12-09T17:14:37.195Z,78.23
2022-12-09T17:19:42.393Z,78.41
2022-12-09T17:24:45.922Z,78.48
2022-12-09T17:29:49.507Z,78.65
2022-12-09T17:34:55.940Z,78.73
2022-12-09T17:40:03.504Z,78.73
2022-12-09T17:45:10.812Z,78.65
2022-12-09T17:50:17.923Z,78.78
2022-12-09T17:55:21.742Z,78.97
2022-12-09T18:00:26.033Z,78.55
2022-12-09T18:05:32.785Z,78.93
2022-12-09T18:10:39.696Z,78.99
2022-12-09T18:15:54.408Z,79.18
2022-12-09T18:21:01.617Z,78.94
2022-12-09T18:26:13.064Z,79.43
2022-12-09T18:31:20.769Z,79.70
2022-12-09T18:36:30.644Z,79.83
2022-12-09T18:41:48.309Z,79.92
2022-12-09T18:47:01.729Z,79.26
2022-12-09T18:52:24.485Z,79.31
2022-12-09T19:03:19.668Z,80.67
2022-12-09T19:08:23.954Z,80.95
2022-12-09T19:13:28.590Z,80.94
2022-12-09T19:18:34.112Z,80.96
2022-12-09T19:23:52.751Z,80.57
2022-12-09T19:29:02.046Z,81.00
2022-12-09T19:34:35.553Z,81.14
2022-12-09T19:39:46.789Z,80.97
2022-12-09T19:45:02.996Z,81.00
2022-12-09T19:50:12.875Z,80.39
2022-12-09T19:55:21.070Z,81.38
2022-12-09T20:01:05.473Z,81.06
2022-12-09T20:06:28.476Z,81.60
2022-12-09T20:11:58.130Z,81.74
2022-12-09T20:17:29.661Z,81.16
2022-12-09T20:23:02.741Z,82.06
2022-12-09T20:28:11.762Z,82.00
2022-12-09T20:33:52.503Z,82.20
2022-12-09T20:39:23.482Z,81.54
2022-12-09T20:44:39.451Z,82.20
2022-12-09T20:50:26.724Z,82.06
2022-12-09T20:55:56.861Z,82.69
2022-12-09T21:01:10.061Z,82.82
2022-12-09T21:06:17.173Z,82.49
2022-12-09T21:11:37.784Z,82.43
2022-12-09T21:16:54.126Z,82.23
2022-12-09T21:22:02.219Z,82.33
2022-12-09T21:27:08.713Z,82.49
2022-12-09T21:32:12.062Z,82.26
2022-12-09T21:37:17.538Z,82.05
2022-12-09T21:42:21.929Z,82.34
2022-12-09T21:47:25.787Z,82.45
2022-12-09T21:52:29.574Z,81.93
2022-12-09T21:57:36.248Z,82.35
2022-12-09T22:02:39.806Z,81.90
2022-12-09T22:07:43.509Z,82.13
2022-12-09T22:12:47.104Z,82.08
2022-12-09T22:17:52.929Z,82.08
2022-12-09T22:22:56.401Z,82.16
2022-12-09T22:27:59.930Z,82.15
2022-12-09T22:33:03.425Z,82.22
2022-12-09T22:38:12.859Z,82.28
2022-12-09T22:43:37.781Z,82.07
2022-12-09T22:49:12.029Z,82.08
2022-12-09T23:00:13.862Z,82.47
2022-12-09T23:05:17.843Z,82.15
2022-12-09T23:10:21.614Z,82.18
2022-12-09T23:15:25.578Z,82.24
2022-12-09T23:20:36.931Z,82.44
2022-12-09T23:25:48.939Z,82.45
2022-12-09T23:30:52.683Z,82.79
2022-12-09T23:35:56.163Z,82.81
2022-12-09T23:42:03.981Z,82.63
2022-12-09T23:47:12.005Z,82.67
2022-12-09T23:58:02.003Z,82.89
